• Join FlightAware (Why Join?)
  • Login
  • US Flag 
09:47AM EST


 

Airport Tracker/Info


-or-


 

Live Flight TrackerFlight Track Log ✈ EJA695 ✈ 12-Jul-2013 ✈ KTUS - KEFD

Flight Track Log - Related Links

Times and Time Zones

All times are in EDT time to prevent confusion due to time zone crossing. See the EJA695 flight status page for this flight to view local times or setup timezone preferences in your user account.

Time Position Orientation Groundspeed Altitude Reporting Facility
EDT Latitude Longitude Course Direction KTS MPH feet Rate Location/Type
01:03PM 32.1094 -110.9331 136° Southeast 149 171 3,100  Level Albuquerque Center
01:04PM 32.0761 -110.8944 136° Southeast 204 235 4,900 2,460 Climbing Albuquerque Center
01:05PM 32.0311 -110.9267 211° Southwest 249 287 7,600 2,700 Climbing Albuquerque Center
01:06PM 32.0742 -110.9831 312° West 276 318 10,400 2,760 Climbing Albuquerque Center
01:07PM 32.1514 -110.9947 353° North 279 321 13,200 2,520 Climbing Albuquerque Center
01:08PM 32.1894 -110.9803 18° North 283 326 14,300 1,980 Climbing Albuquerque Center
01:09PM 32.2425 -110.9117 48° Northeast 292 336 16,300 1,260 Climbing Albuquerque Center
01:10PM 32.2344 -110.8175 96° East 295 339 17,000 840 Climbing Albuquerque Center
01:11PM 32.2503 -110.7192 79° East 306 352 18,100 1,500 Climbing Albuquerque Center
01:12PM 32.2606 -110.6303 82° East 290 334 20,200 1,620 Climbing Albuquerque Center
01:13PM 32.2506 -110.5150 96° East 299 344 21,500 1,020 Climbing Albuquerque Center
01:14PM 32.2417 -110.4078 96° East 319 367 22,400 900 Climbing Albuquerque Center
01:15PM 32.2314 -110.2964 96° East 336 387 23,400 960 Climbing Albuquerque Center
01:16PM 32.2233 -110.1806 95° East 349 402 24,400 960 Climbing Albuquerque Center
01:17PM 32.2122 -110.0631 96° East 357 411 25,400 1,200 Climbing Albuquerque Center
01:18PM 32.2014 -109.9411 96° East 358 412 26,900 1,440 Climbing Albuquerque Center
01:19PM 32.1911 -109.8253 96° East 356 410 28,400 1,440 Climbing Albuquerque Center
01:20PM 32.1778 -109.6914 97° East 346 398 29,900 1,200 Climbing Albuquerque Center
01:21PM 32.1678 -109.5753 96° East 353 406 30,900 960 Climbing Albuquerque Center
01:22PM 32.1575 -109.4586 96° East 358 412 31,900 1,020 Climbing Albuquerque Center
01:23PM 32.1456 -109.3406 97° East 362 417 33,100 1,200 Climbing Albuquerque Center
01:24PM 32.1353 -109.2247 96° East 358 412 34,400 1,080 Climbing Albuquerque Center
01:25PM 32.1228 -109.1083 97° East 358 412 35,400 1,080 Climbing Albuquerque Center
01:26PM 32.1089 -108.9678 97° East 360 414 36,700 1,080 Climbing Albuquerque Center
01:27PM 32.0975 -108.8494 96° East 363 418 37,700 960 Climbing Albuquerque Center
01:28PM 32.0844 -108.7311 97° East 364 419 38,700 960 Climbing Albuquerque Center
01:29PM 32.0725 -108.6150 97° East 361 415 39,700 960 Climbing Albuquerque Center
01:30PM 32.0611 -108.5003 97° East 356 410 40,700 600 Climbing Albuquerque Center
01:31PM 32.0500 -108.3847 96° East 354 407 41,000 120 Climbing Albuquerque Center
01:32PM 32.0347 -108.2397 97° East 369 425 41,000  Level Albuquerque Center
01:34PM 32.0211 -108.1156 97° East 379 436 41,000  Level Albuquerque Center
01:35PM 32.0086 -107.9903 97° East 384 442 41,000  Level Albuquerque Center
01:36PM 31.9942 -107.8644 98° East 389 448 41,000  Level Albuquerque Center
01:37PM 31.9811 -107.7375 97° East 391 450 41,000  Level Albuquerque Center
01:38PM 31.9678 -107.6108 97° East 393 452 41,000  Level Albuquerque Center
01:39PM 31.9506 -107.4583 98° East 394 453 41,000  Level Albuquerque Center
01:40PM 31.9367 -107.3308 97° East 396 456 41,000  Level Albuquerque Center
01:41PM 31.9236 -107.2044 97° East 394 453 41,000  Level Albuquerque Center
01:42PM 31.9086 -107.0756 98° East 397 457 41,000  Level Albuquerque Center
01:43PM 31.8950 -106.9522 97° East 389 448 41,000  Level Albuquerque Center
01:44PM 31.8772 -106.8003 98° East 391 450 41,000  Level Albuquerque Center
01:45PM 31.8625 -106.6742 98° East 391 450 41,000  Level Albuquerque Center
01:46PM 31.8469 -106.5514 98° East 392 451 41,000  Level Albuquerque Center
01:47PM 31.8331 -106.4206 97° East 400 460 41,000  Level Albuquerque Center
01:48PM 31.8194 -106.2922 97° East 398 458 41,000  Level Albuquerque Center
01:49PM 31.8031 -106.1628 98° East 399 459 41,000  Level Albuquerque Center
01:50PM 31.7836 -106.0117 99° East 392 451 41,000  Level Albuquerque Center
01:51PM 31.7686 -105.8836 98° East 396 456 41,000  Level Albuquerque Center
01:52PM 31.7522 -105.7564 99° East 395 455 41,000  Level Albuquerque Center
01:53PM 31.7372 -105.6278 98° East 396 456 41,000  Level Albuquerque Center
01:54PM 31.7217 -105.4983 98° East 400 460 41,000  Level Albuquerque Center
01:55PM 31.7058 -105.3708 98° East 396 456 41,000  Level Albuquerque Center
01:56PM 31.6867 -105.2150 98° East 399 459 41,000  Level Albuquerque Center
01:57PM 31.6711 -105.0867 98° East 398 458 41,000  Level Albuquerque Center
01:58PM 31.6547 -104.9581 98° East 398 458 41,000  Level Albuquerque Center
01:59PM 31.6381 -104.8294 99° East 398 458 41,000  Level Albuquerque Center
02:00PM 31.6211 -104.7014 99° East 397 457 41,000  Level Albuquerque Center
02:01PM 31.6058 -104.5742 98° East 395 455 41,000  Level Albuquerque Center
02:02PM 31.5883 -104.4444 99° East 399 459 41,000  Level Albuquerque Center
02:03PM 31.5706 -104.3156 99° East 400 460 41,000  Level Albuquerque Center
02:04PM 31.5500 -104.1619 99° East 398 458 41,000  Level Albuquerque Center
02:06PM 31.5333 -104.0339 99° East 397 457 41,000  Level Albuquerque Center
02:07PM 31.5142 -103.9050 100° East 399 459 41,000  Level Albuquerque Center
02:08PM 31.4975 -103.7775 99° East 398 458 41,000  Level Albuquerque Center
02:09PM 31.4792 -103.6481 99° East 400 460 41,000  Level Albuquerque Center
02:10PM 31.4608 -103.5197 99° East 401 461 41,000  Level Albuquerque Center
02:11PM 31.4444 -103.3756 98° East 399 459 41,000  Level Albuquerque Center
02:12PM 31.4283 -103.2461 98° East 402 463 41,000  Level Albuquerque Center
02:13PM 31.4122 -103.1169 98° East 402 463 41,000  Level Albuquerque Center
02:14PM 31.3961 -102.9881 98° East 402 463 41,000  Level Albuquerque Center
02:15PM 31.3761 -102.8328 99° East 403 464 41,000  Level Albuquerque Center
02:16PM 31.3597 -102.7025 98° East 405 466 41,000  Level Albuquerque Center
02:17PM 31.3425 -102.5747 99° East 403 464 41,000  Level Albuquerque Center
02:18PM 31.3258 -102.4453 99° East 403 464 41,000  Level Albuquerque Center
02:19PM 31.3092 -102.3172 99° East 401 461 41,000  Level Albuquerque Center
02:20PM 31.2919 -102.1875 99° East 404 465 41,000  Level Albuquerque Center
02:21PM 31.2711 -102.0306 99° East 407 468 41,000  Level Albuquerque Center
02:22PM 31.2544 -101.9017 99° East 405 466 41,000  Level Albuquerque Center
02:23PM 31.2375 -101.7756 99° East 406 467 41,000  Level Houston Center
02:24PM 31.2211 -101.6458 98° East 405 466 41,000  Level Houston Center
02:25PM 31.2033 -101.5164 99° East 404 465 41,000  Level Houston Center
02:26PM 31.1814 -101.3611 99° East 405 466 41,000  Level Houston Center
02:27PM 31.1628 -101.2322 100° East 405 466 41,000  Level Houston Center
02:28PM 31.1450 -101.1011 99° East 407 468 41,000  Level Houston Center
02:29PM 31.1269 -100.9686 99° East 412 474 41,000  Level Houston Center
02:30PM 31.1086 -100.8394 99° East 406 467 41,000  Level Houston Center
02:31PM 31.0900 -100.7081 99° East 410 472 41,000  Level Houston Center
02:32PM 31.0703 -100.5769 100° East 410 472 41,000  Level Houston Center
02:33PM 31.0481 -100.4203 99° East 407 468 41,000  Level Houston Center
02:34PM 31.0283 -100.2911 100° East 405 466 41,000  Level Houston Center
02:35PM 31.0083 -100.1592 100° East 409 471 41,000  Level Houston Center
02:36PM 30.9900 -100.0292 99° East 407 468 41,000  Level Houston Center
02:38PM 30.9703 -99.8992 100° East 406 467 41,000  Level Houston Center
02:39PM 30.9508 -99.7694 100° East 406 467 41,000  Level Houston Center
02:40PM 30.9267 -99.6153 100° East 404 465 41,000  Level Houston Center
02:41PM 30.9075 -99.4842 100° East 409 471 41,000  Level Houston Center
02:42PM 30.8875 -99.3542 100° East 408 470 41,000  Level Houston Center
02:43PM 30.8661 -99.2244 101° East 408 470 41,000  Level Houston Center
02:44PM 30.8453 -99.0939 100° East 409 471 41,000 -660 Level Houston Center
02:45PM 30.8208 -98.9414 101° East 407 468 39,700 -1,500 Descending Houston Center
02:46PM 30.8006 -98.8117 100° East 407 468 38,000 -1,680 Descending Houston Center
02:47PM 30.7875 -98.6786 96° East 411 473 36,300 -1,500 Descending Houston Center
02:48PM 30.7739 -98.5425 97° East 419 482 35,000 -660 Descending Houston Center
02:49PM 30.7608 -98.4067 96° East 420 483 35,000  Level Houston Center
02:50PM 30.7483 -98.2711 96° East 420 483 35,000  Level Houston Center
02:51PM 30.7344 -98.1344 97° East 421 484 35,000  Level Houston Center
02:52PM 30.7183 -97.9753 97° East 422 486 35,000  Level Houston Center
02:53PM 30.7044 -97.8383 97° East 423 487 35,000  Level Houston Center
02:54PM 30.6908 -97.7014 97° East 425 489 35,000  Level Houston Center
02:55PM 30.6761 -97.5653 97° East 424 488 35,000 -120 Level Houston Center
02:56PM 30.6625 -97.4283 97° East 425 489 34,800 -1,020 Descending Houston Center
02:57PM 30.6464 -97.2689 97° East 427 491 33,000 -1,860 Descending Houston Center
02:58PM 30.6331 -97.1319 96° East 427 491 31,000 -1,920 Descending Houston Center
02:59PM 30.6183 -96.9944 97° East 428 493 29,000 -1,980 Descending Houston Center
03:00PM 30.6097 -96.8533 94° East 437 503 27,000 -1,980 Descending Houston Center
03:01PM 30.6167 -96.7147 87° East 433 498 25,000 -1,500 Descending Houston Center
03:02PM 30.6083 -96.5869 94° East 410 472 24,000 -1,440 Descending Houston Center
03:03PM 30.5231 -96.4783 132° Southeast 388 447 22,100 -2,640 Descending Houston Center
03:04PM 30.4356 -96.4050 144° Southeast 385 443 18,600 -3,120 Descending Houston Center
03:05PM 30.3522 -96.3325 143° Southeast 373 429 15,700 -2,820 Descending Houston Center
03:07PM 30.2689 -96.2603 143° Southeast 372 428 12,800 -2,280 Descending Houston Center
03:08PM 30.1881 -96.1950 145° Southeast 350 403 11,000 -960 Descending Houston Center
03:09PM 30.1014 -96.1444 153° Southeast 343 395 10,900 -60 Descending Houston Center
03:10PM 30.0158 -96.0894 151° Southeast 349 402 10,900 -660 Level Houston Center
03:11PM 29.9106 -96.0414 158° South 302 348 9,500 -1,380 Descending Houston Center
03:12PM 29.8431 -95.9889 146° Southeast 281 323 8,000 -1,320 Descending Houston Center
03:13PM 29.7925 -95.9378 139° Southeast 290 334 7,000 -600 Descending Houston Center
03:14PM 29.7322 -95.8786 140° Southeast 287 330 6,900 -480 Descending Houston Center
03:15PM 29.6658 -95.8119 139° Southeast 259 298 6,000 -780 Descending Houston Center
03:16PM 29.6147 -95.7506 134° Southeast 265 305 5,300 -840 Descending Houston Center
03:17PM 29.5689 -95.6836 128° Southeast 265 305 4,300 -1,200 Descending Houston Center
03:18PM 29.5314 -95.6211 125° Southeast 232 267 3,000 -660 Descending Houston Center
03:19PM 29.5083 -95.5528 111° Southeast 233 268 3,000  Level Houston Center
03:20PM 29.4842 -95.4839 112° Southeast 234 269 3,000 420 Level Houston Center
03:21PM 29.4297 -95.4050 128° Southeast 265 305 4,000 240 Climbing Houston Center
03:22PM 29.4181 -95.3322 100° East 247 284 3,500 -540 Descending Houston Center
03:23PM 29.4108 -95.2556 96° East 244 281 3,000 -660 Descending Houston Center
03:24PM 29.4481 -95.1942 55° Northeast 209 241 2,200 -420 Descending Houston Center
03:25PM 29.4919 -95.1456 44° Northeast 216 249 2,200 -120 Level Houston Center
03:26PM 29.5522 -95.1406 North 224 258 2,000 -360 Descending Houston Center
03:27PM 29.6086 -95.1361 North 212 244 1,600 -420 Descending Houston Center
03:28PM 29.6511 -95.1431 352° North 148 170 1,200 -660 Descending Houston Center
03:29PM 29.6281 -95.1650 220° Southwest 128 147 300 -900 Descending Houston Center